sensor_id;sensor_type;location;lat;lon;timestamp;pressure;altitude;pressure_sealevel;temperature
12430;BMP280;6279;42.192;24.326;2022-10-15T00:00:49;99406.06;;;14.03
12430;BMP280;6279;42.192;24.326;2022-10-15T00:03:15;99399.94;;;14.10
12430;BMP280;6279;42.192;24.326;2022-10-15T00:05:41;99396.44;;;14.17
12430;BMP280;6279;42.192;24.326;2022-10-15T00:08:08;99406.34;;;14.22
12430;BMP280;6279;42.192;24.326;2022-10-15T00:10:35;99399.56;;;14.27
12430;BMP280;6279;42.192;24.326;2022-10-15T00:13:01;99403.47;;;14.31
12430;BMP280;6279;42.192;24.326;2022-10-15T00:15:27;99401.81;;;14.30
12430;BMP280;6279;42.192;24.326;2022-10-15T00:17:52;99399.59;;;13.99
12430;BMP280;6279;42.192;24.326;2022-10-15T00:20:18;99402.72;;;13.72
12430;BMP280;6279;42.192;24.326;2022-10-15T00:22:43;99392.41;;;13.79
12430;BMP280;6279;42.192;24.326;2022-10-15T00:25:10;99392.84;;;13.82
12430;BMP280;6279;42.192;24.326;2022-10-15T00:27:36;99390.50;;;13.87
12430;BMP280;6279;42.192;24.326;2022-10-15T00:30:03;99386.50;;;13.99
12430;BMP280;6279;42.192;24.326;2022-10-15T00:32:29;99385.31;;;14.01
12430;BMP280;6279;42.192;24.326;2022-10-15T00:34:55;99382.16;;;14.05
12430;BMP280;6279;42.192;24.326;2022-10-15T00:37:21;99382.63;;;13.95
12430;BMP280;6279;42.192;24.326;2022-10-15T00:39:47;99381.03;;;13.86
12430;BMP280;6279;42.192;24.326;2022-10-15T00:42:12;99374.28;;;13.77
12430;BMP280;6279;42.192;24.326;2022-10-15T00:44:57;99376.63;;;13.86
12430;BMP280;6279;42.192;24.326;2022-10-15T00:47:26;99375.13;;;13.92
12430;BMP280;6279;42.192;24.326;2022-10-15T00:50:10;99381.09;;;14.00
12430;BMP280;6279;42.192;24.326;2022-10-15T00:55:27;99368.56;;;13.96
12430;BMP280;6279;42.192;24.326;2022-10-15T00:57:54;99363.34;;;13.96
12430;BMP280;6279;42.192;24.326;2022-10-15T01:00:21;99364.84;;;14.04
12430;BMP280;6279;42.192;24.326;2022-10-15T01:02:47;99374.59;;;14.10
12430;BMP280;6279;42.192;24.326;2022-10-15T01:05:14;99364.75;;;14.12
12430;BMP280;6279;42.192;24.326;2022-10-15T01:07:40;99360.38;;;14.13
12430;BMP280;6279;42.192;24.326;2022-10-15T01:10:06;99367.03;;;14.15
12430;BMP280;6279;42.192;24.326;2022-10-15T01:15:42;99362.13;;;14.12
12430;BMP280;6279;42.192;24.326;2022-10-15T01:18:20;99369.66;;;14.15
12430;BMP280;6279;42.192;24.326;2022-10-15T01:21:15;99357.81;;;14.19
12430;BMP280;6279;42.192;24.326;2022-10-15T01:24:17;99360.06;;;14.22
12430;BMP280;6279;42.192;24.326;2022-10-15T01:26:52;99361.69;;;14.23
12430;BMP280;6279;42.192;24.326;2022-10-15T01:32:16;99360.16;;;14.28
12430;BMP280;6279;42.192;24.326;2022-10-15T01:35:08;99364.41;;;14.15
12430;BMP280;6279;42.192;24.326;2022-10-15T01:37:43;99358.72;;;14.12
12430;BMP280;6279;42.192;24.326;2022-10-15T01:40:15;99361.00;;;14.15
12430;BMP280;6279;42.192;24.326;2022-10-15T01:42:59;99368.00;;;14.00
12430;BMP280;6279;42.192;24.326;2022-10-15T01:45:43;99361.13;;;13.85
12430;BMP280;6279;42.192;24.326;2022-10-15T01:48:11;99362.88;;;13.70
12430;BMP280;6279;42.192;24.326;2022-10-15T01:50:44;99361.66;;;13.81
12430;BMP280;6279;42.192;24.326;2022-10-15T01:53:14;99354.56;;;13.89
12430;BMP280;6279;42.192;24.326;2022-10-15T01:55:42;99355.81;;;13.93
12430;BMP280;6279;42.192;24.326;2022-10-15T01:58:10;99355.94;;;13.99
12430;BMP280;6279;42.192;24.326;2022-10-15T02:00:38;99361.44;;;14.04
12430;BMP280;6279;42.192;24.326;2022-10-15T02:03:04;99354.84;;;14.08
12430;BMP280;6279;42.192;24.326;2022-10-15T02:05:36;99344.13;;;14.03
12430;BMP280;6279;42.192;24.326;2022-10-15T02:11:19;99345.19;;;14.08
12430;BMP280;6279;42.192;24.326;2022-10-15T02:14:02;99339.97;;;14.08
12430;BMP280;6279;42.192;24.326;2022-10-15T02:16:38;99347.53;;;14.03
12430;BMP280;6279;42.192;24.326;2022-10-15T02:21:47;99351.16;;;13.66
12430;BMP280;6279;42.192;24.326;2022-10-15T02:24:20;99340.59;;;13.46
12430;BMP280;6279;42.192;24.326;2022-10-15T02:26:50;99344.47;;;13.50
12430;BMP280;6279;42.192;24.326;2022-10-15T02:29:20;99350.41;;;13.58
12430;BMP280;6279;42.192;24.326;2022-10-15T02:31:48;99351.94;;;13.53
12430;BMP280;6279;42.192;24.326;2022-10-15T02:34:17;99345.81;;;13.46
12430;BMP280;6279;42.192;24.326;2022-10-15T02:36:44;99353.38;;;13.41
12430;BMP280;6279;42.192;24.326;2022-10-15T02:39:15;99353.03;;;13.44
12430;BMP280;6279;42.192;24.326;2022-10-15T02:41:42;99350.81;;;13.33
12430;BMP280;6279;42.192;24.326;2022-10-15T02:44:08;99348.97;;;13.19
12430;BMP280;6279;42.192;24.326;2022-10-15T02:46:33;99359.06;;;13.22
12430;BMP280;6279;42.192;24.326;2022-10-15T02:48:59;99358.03;;;13.31
12430;BMP280;6279;42.192;24.326;2022-10-15T02:51:24;99352.41;;;13.42
12430;BMP280;6279;42.192;24.326;2022-10-15T02:53:50;99349.34;;;13.53
12430;BMP280;6279;42.192;24.326;2022-10-15T02:56:15;99354.97;;;13.64
12430;BMP280;6279;42.192;24.326;2022-10-15T02:58:41;99346.22;;;13.71
12430;BMP280;6279;42.192;24.326;2022-10-15T03:01:06;99352.56;;;13.77
12430;BMP280;6279;42.192;24.326;2022-10-15T03:03:32;99344.78;;;13.83
12430;BMP280;6279;42.192;24.326;2022-10-15T03:05:57;99355.56;;;13.88
12430;BMP280;6279;42.192;24.326;2022-10-15T03:08:22;99356.63;;;13.93
12430;BMP280;6279;42.192;24.326;2022-10-15T03:10:48;99358.44;;;13.93
12430;BMP280;6279;42.192;24.326;2022-10-15T03:13:13;99353.50;;;13.98
12430;BMP280;6279;42.192;24.326;2022-10-15T03:15:39;99356.00;;;13.91
12430;BMP280;6279;42.192;24.326;2022-10-15T03:18:04;99353.19;;;13.93
12430;BMP280;6279;42.192;24.326;2022-10-15T03:20:30;99361.34;;;13.98
12430;BMP280;6279;42.192;24.326;2022-10-15T03:22:55;99357.38;;;14.02
12430;BMP280;6279;42.192;24.326;2022-10-15T03:25:21;99361.53;;;13.96
12430;BMP280;6279;42.192;24.326;2022-10-15T03:27:47;99358.72;;;13.98
12430;BMP280;6279;42.192;24.326;2022-10-15T03:30:12;99352.16;;;14.02
12430;BMP280;6279;42.192;24.326;2022-10-15T03:32:38;99359.13;;;13.87
12430;BMP280;6279;42.192;24.326;2022-10-15T03:35:03;99354.81;;;13.94
12430;BMP280;6279;42.192;24.326;2022-10-15T03:37:30;99363.47;;;13.94
12430;BMP280;6279;42.192;24.326;2022-10-15T03:39:55;99365.66;;;13.91
12430;BMP280;6279;42.192;24.326;2022-10-15T03:42:20;99362.47;;;13.81
12430;BMP280;6279;42.192;24.326;2022-10-15T03:44:46;99361.81;;;13.65
12430;BMP280;6279;42.192;24.326;2022-10-15T03:47:11;99362.75;;;13.50
12430;BMP280;6279;42.192;24.326;2022-10-15T03:49:37;99364.78;;;13.62
12430;BMP280;6279;42.192;24.326;2022-10-15T03:52:02;99362.88;;;13.70
12430;BMP280;6279;42.192;24.326;2022-10-15T03:54:28;99363.00;;;13.77
12430;BMP280;6279;42.192;24.326;2022-10-15T03:56:53;99362.09;;;13.84
12430;BMP280;6279;42.192;24.326;2022-10-15T03:59:18;99371.56;;;13.85
12430;BMP280;6279;42.192;24.326;2022-10-15T04:01:44;99362.88;;;13.70
12430;BMP280;6279;42.192;24.326;2022-10-15T04:04:10;99362.00;;;13.63
12430;BMP280;6279;42.192;24.326;2022-10-15T04:06:36;99368.06;;;13.56
12430;BMP280;6279;42.192;24.326;2022-10-15T04:09:02;99364.75;;;13.48
12430;BMP280;6279;42.192;24.326;2022-10-15T04:11:27;99360.88;;;13.44
12430;BMP280;6279;42.192;24.326;2022-10-15T04:13:53;99360.34;;;13.26
12430;BMP280;6279;42.192;24.326;2022-10-15T04:16:18;99365.78;;;13.39
12430;BMP280;6279;42.192;24.326;2022-10-15T04:18:43;99370.28;;;13.31
12430;BMP280;6279;42.192;24.326;2022-10-15T04:21:09;99368.94;;;13.35
12430;BMP280;6279;42.192;24.326;2022-10-15T04:23:34;99370.44;;;13.29
12430;BMP280;6279;42.192;24.326;2022-10-15T04:26:00;99373.78;;;13.37
12430;BMP280;6279;42.192;24.326;2022-10-15T04:28:26;99372.75;;;13.46
12430;BMP280;6279;42.192;24.326;2022-10-15T04:30:59;99369.25;;;13.54
12430;BMP280;6279;42.192;24.326;2022-10-15T04:33:25;99376.63;;;13.50
12430;BMP280;6279;42.192;24.326;2022-10-15T04:36:06;99375.75;;;13.58
12430;BMP280;6279;42.192;24.326;2022-10-15T04:38:32;99371.81;;;13.61
12430;BMP280;6279;42.192;24.326;2022-10-15T04:43:24;99373.06;;;13.65
12430;BMP280;6279;42.192;24.326;2022-10-15T04:45:49;99372.47;;;13.78
12430;BMP280;6279;42.192;24.326;2022-10-15T04:48:15;99382.56;;;13.81
12430;BMP280;6279;42.192;24.326;2022-10-15T04:50:40;99376.16;;;13.83
12430;BMP280;6279;42.192;24.326;2022-10-15T04:53:06;99383.38;;;13.81
12430;BMP280;6279;42.192;24.326;2022-10-15T04:55:31;99385.88;;;13.75
12430;BMP280;6279;42.192;24.326;2022-10-15T04:57:56;99385.28;;;13.87
12430;BMP280;6279;42.192;24.326;2022-10-15T05:00:22;99385.41;;;13.93
12430;BMP280;6279;42.192;24.326;2022-10-15T05:02:47;99388.13;;;14.00
12430;BMP280;6279;42.192;24.326;2022-10-15T05:05:12;99384.59;;;14.07
12430;BMP280;6279;42.192;24.326;2022-10-15T05:07:38;99384.06;;;14.11
12430;BMP280;6279;42.192;24.326;2022-10-15T05:10:03;99387.59;;;14.18
12430;BMP280;6279;42.192;24.326;2022-10-15T05:12:29;99381.63;;;14.24
12430;BMP280;6279;42.192;24.326;2022-10-15T05:14:54;99389.59;;;14.30
12430;BMP280;6279;42.192;24.326;2022-10-15T05:17:20;99383.81;;;14.35
12430;BMP280;6279;42.192;24.326;2022-10-15T05:19:45;99396.25;;;14.33
12430;BMP280;6279;42.192;24.326;2022-10-15T05:22:11;99393.72;;;14.25
12430;BMP280;6279;42.192;24.326;2022-10-15T05:24:36;99401.94;;;14.22
12430;BMP280;6279;42.192;24.326;2022-10-15T05:27:01;99407.16;;;14.22
12430;BMP280;6279;42.192;24.326;2022-10-15T05:29:27;99408.06;;;14.29
12430;BMP280;6279;42.192;24.326;2022-10-15T05:31:52;99410.66;;;14.29
12430;BMP280;6279;42.192;24.326;2022-10-15T05:34:17;99403.38;;;14.39
12430;BMP280;6279;42.192;24.326;2022-10-15T05:36:43;99409.16;;;14.48
12430;BMP280;6279;42.192;24.326;2022-10-15T05:39:08;99412.28;;;14.58
12430;BMP280;6279;42.192;24.326;2022-10-15T05:41:36;99413.47;;;14.70
12430;BMP280;6279;42.192;24.326;2022-10-15T05:44:02;99411.34;;;14.80
12430;BMP280;6279;42.192;24.326;2022-10-15T05:46:27;99413.50;;;14.91
12430;BMP280;6279;42.192;24.326;2022-10-15T05:48:55;99415.50;;;15.03
12430;BMP280;6279;42.192;24.326;2022-10-15T05:51:21;99404.22;;;15.02
12430;BMP280;6279;42.192;24.326;2022-10-15T05:53:47;99408.94;;;15.13
12430;BMP280;6279;42.192;24.326;2022-10-15T05:56:13;99417.38;;;15.29
12430;BMP280;6279;42.192;24.326;2022-10-15T05:58:39;99409.09;;;15.46
12430;BMP280;6279;42.192;24.326;2022-10-15T06:01:07;99414.47;;;15.59
12430;BMP280;6279;42.192;24.326;2022-10-15T06:03:33;99416.56;;;15.70
12430;BMP280;6279;42.192;24.326;2022-10-15T06:05:58;99421.25;;;15.74
12430;BMP280;6279;42.192;24.326;2022-10-15T06:08:24;99423.31;;;15.79
12430;BMP280;6279;42.192;24.326;2022-10-15T06:10:49;99420.44;;;15.74
12430;BMP280;6279;42.192;24.326;2022-10-15T06:13:15;99427.56;;;15.79
12430;BMP280;6279;42.192;24.326;2022-10-15T06:15:42;99423.34;;;15.85
12430;BMP280;6279;42.192;24.326;2022-10-15T06:18:09;99416.59;;;15.97
12430;BMP280;6279;42.192;24.326;2022-10-15T06:20:35;99427.22;;;16.09
12430;BMP280;6279;42.192;24.326;2022-10-15T06:23:02;99426.09;;;16.24
12430;BMP280;6279;42.192;24.326;2022-10-15T06:25:28;99433.97;;;16.24
12430;BMP280;6279;42.192;24.326;2022-10-15T06:27:53;99436.22;;;16.27
12430;BMP280;6279;42.192;24.326;2022-10-15T06:30:19;99435.47;;;16.33
12430;BMP280;6279;42.192;24.326;2022-10-15T06:32:49;99440.31;;;16.36
12430;BMP280;6279;42.192;24.326;2022-10-15T06:35:15;99439.16;;;16.45
12430;BMP280;6279;42.192;24.326;2022-10-15T06:37:41;99451.75;;;16.56
12430;BMP280;6279;42.192;24.326;2022-10-15T06:40:07;99452.97;;;16.60
12430;BMP280;6279;42.192;24.326;2022-10-15T06:42:33;99448.31;;;16.62
12430;BMP280;6279;42.192;24.326;2022-10-15T06:44:58;99448.63;;;16.79
12430;BMP280;6279;42.192;24.326;2022-10-15T06:47:23;99447.91;;;16.98
12430;BMP280;6279;42.192;24.326;2022-10-15T06:49:49;99453.84;;;17.06
12430;BMP280;6279;42.192;24.326;2022-10-15T06:52:14;99455.72;;;17.25
12430;BMP280;6279;42.192;24.326;2022-10-15T06:54:43;99452.13;;;17.38
12430;BMP280;6279;42.192;24.326;2022-10-15T06:57:08;99451.72;;;17.48
12430;BMP280;6279;42.192;24.326;2022-10-15T06:59:36;99458.22;;;17.64
12430;BMP280;6279;42.192;24.326;2022-10-15T07:02:02;99450.75;;;17.61
12430;BMP280;6279;42.192;24.326;2022-10-15T07:04:27;99452.00;;;17.72
12430;BMP280;6279;42.192;24.326;2022-10-15T07:06:53;99457.25;;;17.78
12430;BMP280;6279;42.192;24.326;2022-10-15T07:09:18;99455.59;;;17.64
12430;BMP280;6279;42.192;24.326;2022-10-15T07:11:51;99440.03;;;17.63
12430;BMP280;6279;42.192;24.326;2022-10-15T07:14:16;99442.06;;;17.86
12430;BMP280;6279;42.192;24.326;2022-10-15T07:16:41;99442.94;;;18.06
12430;BMP280;6279;42.192;24.326;2022-10-15T07:19:07;99445.16;;;18.09
12430;BMP280;6279;42.192;24.326;2022-10-15T07:21:32;99441.47;;;18.16
12430;BMP280;6279;42.192;24.326;2022-10-15T07:23:58;99443.69;;;18.32
12430;BMP280;6279;42.192;24.326;2022-10-15T07:26:25;99438.25;;;18.27
12430;BMP280;6279;42.192;24.326;2022-10-15T07:28:54;99434.19;;;18.31
12430;BMP280;6279;42.192;24.326;2022-10-15T07:31:19;99434.53;;;18.53
12430;BMP280;6279;42.192;24.326;2022-10-15T07:33:45;99432.59;;;18.98
12430;BMP280;6279;42.192;24.326;2022-10-15T07:36:11;99434.78;;;19.44
12430;BMP280;6279;42.192;24.326;2022-10-15T07:38:39;99433.41;;;19.35
12430;BMP280;6279;42.192;24.326;2022-10-15T07:41:06;99440.34;;;19.67
12430;BMP280;6279;42.192;24.326;2022-10-15T07:43:33;99438.09;;;19.94
12430;BMP280;6279;42.192;24.326;2022-10-15T07:45:58;99436.97;;;20.08
12430;BMP280;6279;42.192;24.326;2022-10-15T07:48:24;99436.06;;;19.96
12430;BMP280;6279;42.192;24.326;2022-10-15T07:50:56;99439.38;;;20.33
12430;BMP280;6279;42.192;24.326;2022-10-15T07:53:22;99433.47;;;20.73
12430;BMP280;6279;42.192;24.326;2022-10-15T07:55:48;99440.38;;;21.27
12430;BMP280;6279;42.192;24.326;2022-10-15T07:58:13;99439.53;;;21.84
12430;BMP280;6279;42.192;24.326;2022-10-15T08:00:39;99440.88;;;22.04
12430;BMP280;6279;42.192;24.326;2022-10-15T08:03:04;99439.38;;;22.64
12430;BMP280;6279;42.192;24.326;2022-10-15T08:05:30;99436.75;;;23.14
12430;BMP280;6279;42.192;24.326;2022-10-15T08:07:55;99440.63;;;23.61
12430;BMP280;6279;42.192;24.326;2022-10-15T08:10:20;99448.09;;;24.08
12430;BMP280;6279;42.192;24.326;2022-10-15T08:12:46;99442.91;;;25.03
12430;BMP280;6279;42.192;24.326;2022-10-15T08:15:11;99447.38;;;27.04
12430;BMP280;6279;42.192;24.326;2022-10-15T08:17:37;99447.00;;;30.12
12430;BMP280;6279;42.192;24.326;2022-10-15T08:20:03;99462.69;;;32.25
12430;BMP280;6279;42.192;24.326;2022-10-15T08:22:29;99463.69;;;33.44
12430;BMP280;6279;42.192;24.326;2022-10-15T08:24:54;99457.16;;;34.28
12430;BMP280;6279;42.192;24.326;2022-10-15T08:27:19;99462.38;;;34.97
12430;BMP280;6279;42.192;24.326;2022-10-15T08:29:45;99453.00;;;35.58
12430;BMP280;6279;42.192;24.326;2022-10-15T08:32:11;99460.66;;;34.80
12430;BMP280;6279;42.192;24.326;2022-10-15T08:34:36;99446.19;;;35.69
12430;BMP280;6279;42.192;24.326;2022-10-15T08:37:02;99448.41;;;36.41
12430;BMP280;6279;42.192;24.326;2022-10-15T08:39:27;99455.91;;;36.53
12430;BMP280;6279;42.192;24.326;2022-10-15T08:41:58;99453.53;;;36.18
12430;BMP280;6279;42.192;24.326;2022-10-15T08:44:29;99464.34;;;34.84
12430;BMP280;6279;42.192;24.326;2022-10-15T08:54:48;99459.88;;;33.58
12430;BMP280;6279;42.192;24.326;2022-10-15T09:10:59;99469.00;;;30.41
12430;BMP280;6279;42.192;24.326;2022-10-15T09:13:27;99461.22;;;29.65
12430;BMP280;6279;42.192;24.326;2022-10-15T09:18:29;99451.38;;;32.99
12430;BMP280;6279;42.192;24.326;2022-10-15T09:20:57;99454.72;;;33.09
12430;BMP280;6279;42.192;24.326;2022-10-15T09:23:26;99441.81;;;34.66
12430;BMP280;6279;42.192;24.326;2022-10-15T09:26:32;99429.16;;;35.93
12430;BMP280;6279;42.192;24.326;2022-10-15T09:29:17;99443.94;;;34.26
12430;BMP280;6279;42.192;24.326;2022-10-15T09:34:34;99439.25;;;33.14
12430;BMP280;6279;42.192;24.326;2022-10-15T09:37:12;99438.69;;;33.65
12430;BMP280;6279;42.192;24.326;2022-10-15T09:42:39;99439.72;;;33.77
12430;BMP280;6279;42.192;24.326;2022-10-15T09:45:11;99430.66;;;33.12
12430;BMP280;6279;42.192;24.326;2022-10-15T09:47:39;99432.69;;;32.89
12430;BMP280;6279;42.192;24.326;2022-10-15T09:50:06;99427.34;;;33.15
12430;BMP280;6279;42.192;24.326;2022-10-15T09:55:28;99417.75;;;34.27
12430;BMP280;6279;42.192;24.326;2022-10-15T09:58:01;99418.00;;;34.98
12430;BMP280;6279;42.192;24.326;2022-10-15T10:03:15;99408.88;;;32.96
12430;BMP280;6279;42.192;24.326;2022-10-15T10:05:41;99414.13;;;33.53
12430;BMP280;6279;42.192;24.326;2022-10-15T10:08:15;99403.03;;;34.11
12430;BMP280;6279;42.192;24.326;2022-10-15T10:10:43;99403.44;;;33.35
12430;BMP280;6279;42.192;24.326;2022-10-15T10:13:25;99406.59;;;32.45
12430;BMP280;6279;42.192;24.326;2022-10-15T10:15:55;99403.88;;;31.46
12430;BMP280;6279;42.192;24.326;2022-10-15T10:18:25;99404.69;;;32.45
12430;BMP280;6279;42.192;24.326;2022-10-15T10:20:58;99392.16;;;33.81
12430;BMP280;6279;42.192;24.326;2022-10-15T10:23:32;99394.34;;;35.20
12430;BMP280;6279;42.192;24.326;2022-10-15T10:26:03;99408.78;;;34.99
12430;BMP280;6279;42.192;24.326;2022-10-15T10:28:45;99400.13;;;33.86
12430;BMP280;6279;42.192;24.326;2022-10-15T10:31:11;99402.34;;;32.70
12430;BMP280;6279;42.192;24.326;2022-10-15T10:33:46;99402.13;;;32.09
12430;BMP280;6279;42.192;24.326;2022-10-15T10:38:54;99408.00;;;30.75
12430;BMP280;6279;42.192;24.326;2022-10-15T10:41:20;99406.44;;;28.56
12430;BMP280;6279;42.192;24.326;2022-10-15T10:43:52;99413.25;;;26.60
12430;BMP280;6279;42.192;24.326;2022-10-15T10:46:19;99401.69;;;27.80
12430;BMP280;6279;42.192;24.326;2022-10-15T10:48:51;99399.66;;;28.88
12430;BMP280;6279;42.192;24.326;2022-10-15T10:51:18;99388.03;;;29.64
12430;BMP280;6279;42.192;24.326;2022-10-15T10:54:10;99401.13;;;28.27
12430;BMP280;6279;42.192;24.326;2022-10-15T10:56:43;99392.88;;;27.94
12430;BMP280;6279;42.192;24.326;2022-10-15T11:01:53;99384.66;;;27.16
12430;BMP280;6279;42.192;24.326;2022-10-15T11:04:30;99375.94;;;26.65
12430;BMP280;6279;42.192;24.326;2022-10-15T11:15:17;99366.09;;;25.94
12430;BMP280;6279;42.192;24.326;2022-10-15T11:20:48;99360.25;;;26.33
12430;BMP280;6279;42.192;24.326;2022-10-15T11:38:11;99364.09;;;23.31
12430;BMP280;6279;42.192;24.326;2022-10-15T11:43:54;99348.34;;;23.25
12430;BMP280;6279;42.192;24.326;2022-10-15T11:46:29;99343.59;;;22.99
12430;BMP280;6279;42.192;24.326;2022-10-15T11:57:19;99345.69;;;23.25
12430;BMP280;6279;42.192;24.326;2022-10-15T12:02:31;99344.16;;;23.29
12430;BMP280;6279;42.192;24.326;2022-10-15T12:07:55;99348.13;;;23.15
12430;BMP280;6279;42.192;24.326;2022-10-15T12:13:33;99361.66;;;22.63
12430;BMP280;6279;42.192;24.326;2022-10-15T12:18:42;99360.44;;;22.55
12430;BMP280;6279;42.192;24.326;2022-10-15T12:23:53;99356.91;;;22.04
12430;BMP280;6279;42.192;24.326;2022-10-15T12:28:54;99348.94;;;22.16
12430;BMP280;6279;42.192;24.326;2022-10-15T12:31:20;99339.34;;;22.48
12430;BMP280;6279;42.192;24.326;2022-10-15T12:36:27;99357.66;;;21.94
12430;BMP280;6279;42.192;24.326;2022-10-15T12:39:02;99353.75;;;21.85
12430;BMP280;6279;42.192;24.326;2022-10-15T12:41:49;99360.09;;;21.84
12430;BMP280;6279;42.192;24.326;2022-10-15T12:44:24;99348.69;;;21.72
12430;BMP280;6279;42.192;24.326;2022-10-15T12:46:51;99345.47;;;21.70
12430;BMP280;6279;42.192;24.326;2022-10-15T12:51:56;99355.44;;;21.17
12430;BMP280;6279;42.192;24.326;2022-10-15T12:57:01;99352.94;;;21.04
12430;BMP280;6279;42.192;24.326;2022-10-15T12:59:52;99360.38;;;21.13
12430;BMP280;6279;42.192;24.326;2022-10-15T13:02:40;99357.44;;;21.04
12430;BMP280;6279;42.192;24.326;2022-10-15T13:05:08;99354.38;;;21.18
12430;BMP280;6279;42.192;24.326;2022-10-15T13:07:37;99343.56;;;21.37
12430;BMP280;6279;42.192;24.326;2022-10-15T13:10:04;99349.09;;;21.47
12430;BMP280;6279;42.192;24.326;2022-10-15T13:12:40;99354.47;;;21.40
12430;BMP280;6279;42.192;24.326;2022-10-15T13:15:06;99350.06;;;21.23
12430;BMP280;6279;42.192;24.326;2022-10-15T13:17:38;99342.34;;;21.22
12430;BMP280;6279;42.192;24.326;2022-10-15T13:20:06;99336.25;;;21.21
12430;BMP280;6279;42.192;24.326;2022-10-15T13:22:35;99340.94;;;21.19
12430;BMP280;6279;42.192;24.326;2022-10-15T13:25:00;99339.28;;;21.36
12430;BMP280;6279;42.192;24.326;2022-10-15T13:27:36;99342.16;;;21.06
12430;BMP280;6279;42.192;24.326;2022-10-15T13:30:13;99338.66;;;20.94
12430;BMP280;6279;42.192;24.326;2022-10-15T13:32:50;99338.56;;;21.00
12430;BMP280;6279;42.192;24.326;2022-10-15T13:35:36;99339.47;;;20.94
12430;BMP280;6279;42.192;24.326;2022-10-15T13:38:03;99335.06;;;20.88
12430;BMP280;6279;42.192;24.326;2022-10-15T13:40:30;99348.31;;;20.71
12430;BMP280;6279;42.192;24.326;2022-10-15T13:43:01;99339.09;;;20.62
12430;BMP280;6279;42.192;24.326;2022-10-15T13:45:27;99331.19;;;20.73
12430;BMP280;6279;42.192;24.326;2022-10-15T13:47:54;99333.44;;;20.87
12430;BMP280;6279;42.192;24.326;2022-10-15T13:50:25;99328.69;;;21.07
12430;BMP280;6279;42.192;24.326;2022-10-15T13:55:31;99328.53;;;21.20
12430;BMP280;6279;42.192;24.326;2022-10-15T14:00:40;99321.22;;;20.75
12430;BMP280;6279;42.192;24.326;2022-10-15T14:03:06;99321.53;;;20.67
12430;BMP280;6279;42.192;24.326;2022-10-15T14:05:32;99334.59;;;20.63
12430;BMP280;6279;42.192;24.326;2022-10-15T14:07:57;99320.72;;;20.67
12430;BMP280;6279;42.192;24.326;2022-10-15T14:10:23;99326.81;;;20.67
12430;BMP280;6279;42.192;24.326;2022-10-15T14:12:48;99321.06;;;20.70
12430;BMP280;6279;42.192;24.326;2022-10-15T14:18:06;99327.34;;;20.58
12430;BMP280;6279;42.192;24.326;2022-10-15T14:20:32;99330.59;;;20.43
12430;BMP280;6279;42.192;24.326;2022-10-15T14:22:58;99325.63;;;20.28
12430;BMP280;6279;42.192;24.326;2022-10-15T14:25:24;99329.78;;;20.18
12430;BMP280;6279;42.192;24.326;2022-10-15T14:27:50;99330.75;;;20.06
12430;BMP280;6279;42.192;24.326;2022-10-15T14:30:33;99330.75;;;20.06
12430;BMP280;6279;42.192;24.326;2022-10-15T14:33:00;99317.13;;;20.09
12430;BMP280;6279;42.192;24.326;2022-10-15T14:35:35;99317.78;;;20.04
12430;BMP280;6279;42.192;24.326;2022-10-15T14:40:32;99320.91;;;19.95
12430;BMP280;6279;42.192;24.326;2022-10-15T14:43:02;99322.13;;;19.75
12430;BMP280;6279;42.192;24.326;2022-10-15T14:45:54;99323.03;;;19.63
12430;BMP280;6279;42.192;24.326;2022-10-15T14:50:57;99309.72;;;19.52
12430;BMP280;6279;42.192;24.326;2022-10-15T14:53:25;99320.31;;;19.45
12430;BMP280;6279;42.192;24.326;2022-10-15T14:56:03;99315.41;;;19.49
12430;BMP280;6279;42.192;24.326;2022-10-15T14:58:31;99309.38;;;19.42
12430;BMP280;6279;42.192;24.326;2022-10-15T15:01:04;99306.63;;;19.31
12430;BMP280;6279;42.192;24.326;2022-10-15T15:03:41;99307.50;;;19.25
12430;BMP280;6279;42.192;24.326;2022-10-15T15:06:08;99311.00;;;19.19
12430;BMP280;6279;42.192;24.326;2022-10-15T15:08:33;99303.50;;;19.16
12430;BMP280;6279;42.192;24.326;2022-10-15T15:11:01;99309.41;;;19.11
12430;BMP280;6279;42.192;24.326;2022-10-15T15:13:29;99314.28;;;19.08
12430;BMP280;6279;42.192;24.326;2022-10-15T15:15:56;99304.41;;;19.04
12430;BMP280;6279;42.192;24.326;2022-10-15T15:18:21;99311.16;;;18.93
12430;BMP280;6279;42.192;24.326;2022-10-15T15:20:48;99313.63;;;18.88
12430;BMP280;6279;42.192;24.326;2022-10-15T15:23:22;99314.41;;;18.89
12430;BMP280;6279;42.192;24.326;2022-10-15T15:25:49;99314.03;;;18.86
12430;BMP280;6279;42.192;24.326;2022-10-15T15:28:17;99319.75;;;18.83
12430;BMP280;6279;42.192;24.326;2022-10-15T15:30:45;99315.47;;;18.75
12430;BMP280;6279;42.192;24.326;2022-10-15T15:33:14;99320.78;;;18.69
12430;BMP280;6279;42.192;24.326;2022-10-15T15:35:43;99319.38;;;18.66
12430;BMP280;6279;42.192;24.326;2022-10-15T15:38:18;99316.13;;;18.71
12430;BMP280;6279;42.192;24.326;2022-10-15T15:40:45;99322.44;;;18.64
12430;BMP280;6279;42.192;24.326;2022-10-15T15:43:13;99324.50;;;18.55
12430;BMP280;6279;42.192;24.326;2022-10-15T15:45:39;99327.97;;;18.49
12430;BMP280;6279;42.192;24.326;2022-10-15T15:48:05;99331.66;;;18.36
12430;BMP280;6279;42.192;24.326;2022-10-15T15:50:30;99343.88;;;18.24
12430;BMP280;6279;42.192;24.326;2022-10-15T15:52:56;99337.59;;;18.12
12430;BMP280;6279;42.192;24.326;2022-10-15T15:55:21;99348.75;;;18.01
12430;BMP280;6279;42.192;24.326;2022-10-15T15:57:47;99344.09;;;17.84
12430;BMP280;6279;42.192;24.326;2022-10-15T16:00:12;99348.16;;;17.74
12430;BMP280;6279;42.192;24.326;2022-10-15T16:02:38;99346.94;;;17.83
12430;BMP280;6279;42.192;24.326;2022-10-15T16:05:06;99352.78;;;17.85
12430;BMP280;6279;42.192;24.326;2022-10-15T16:07:32;99358.69;;;17.74
12430;BMP280;6279;42.192;24.326;2022-10-15T16:09:57;99359.72;;;17.73
12430;BMP280;6279;42.192;24.326;2022-10-15T16:12:23;99366.38;;;17.69
12430;BMP280;6279;42.192;24.326;2022-10-15T16:14:48;99363.56;;;17.71
12430;BMP280;6279;42.192;24.326;2022-10-15T16:17:14;99368.78;;;17.64
12430;BMP280;6279;42.192;24.326;2022-10-15T16:19:39;99377.31;;;17.60
12430;BMP280;6279;42.192;24.326;2022-10-15T16:22:05;99385.41;;;17.58
12430;BMP280;6279;42.192;24.326;2022-10-15T16:24:30;99380.53;;;17.56
12430;BMP280;6279;42.192;24.326;2022-10-15T16:26:56;99398.34;;;17.54
12430;BMP280;6279;42.192;24.326;2022-10-15T16:29:21;99400.16;;;17.47